createdAt,value
2019-05-07T00:12:24.015Z,17.80
2019-05-07T00:15:00.958Z,21.45
2019-05-07T00:17:24.260Z,18.20
2019-05-07T00:19:53.533Z,17.03
2019-05-07T00:22:22.925Z,17.87
2019-05-07T00:24:52.315Z,17.77
2019-05-07T00:27:22.573Z,16.97
2019-05-07T00:29:52.195Z,18.77
2019-05-07T00:32:22.124Z,17.67
2019-05-07T00:35:13.140Z,16.57
2019-05-07T00:37:49.557Z,18.23
2019-05-07T00:40:22.574Z,16.87
2019-05-07T00:43:05.424Z,17.87
2019-05-07T00:45:56.818Z,18.13
2019-05-07T00:48:25.314Z,18.03
2019-05-07T00:50:56.236Z,18.77
2019-05-07T00:53:25.492Z,17.47
2019-05-07T00:55:54.795Z,18.57
2019-05-07T00:58:26.677Z,17.70
2019-05-07T01:00:55.045Z,18.27
2019-05-07T01:03:24.320Z,18.07
2019-05-07T01:05:53.618Z,18.20
2019-05-07T01:08:22.880Z,18.77
2019-05-07T01:10:52.861Z,17.43
2019-05-07T01:13:23.464Z,18.97
2019-05-07T01:15:53.319Z,18.67
2019-05-07T01:18:23.462Z,17.23
2019-05-07T01:20:53.468Z,17.70
2019-05-07T01:23:23.176Z,18.30
2019-05-07T01:25:52.807Z,18.47
2019-05-07T01:28:22.532Z,18.20
2019-05-07T01:30:52.858Z,16.80
2019-05-07T01:33:26.728Z,18.10
2019-05-07T01:36:09.664Z,18.83
2019-05-07T01:38:42.558Z,18.07
2019-05-07T01:41:12.482Z,18.33
2019-05-07T01:43:42.939Z,17.97
2019-05-07T01:46:13.438Z,18.40
2019-05-07T01:48:43.063Z,17.17
2019-05-07T01:51:12.970Z,18.53
2019-05-07T01:53:43.285Z,17.53
2019-05-07T01:56:12.589Z,17.40
2019-05-07T01:58:42.482Z,17.83
2019-05-07T02:01:13.113Z,18.30
2019-05-07T02:03:44.235Z,18.40
2019-05-07T02:06:23.848Z,17.20
2019-05-07T02:08:57.709Z,18.37
2019-05-07T02:11:28.628Z,17.77
2019-05-07T02:13:57.919Z,16.57
2019-05-07T02:16:27.188Z,16.83
2019-05-07T02:18:56.491Z,18.10
2019-05-07T02:21:25.748Z,17.67
2019-05-07T02:23:55.049Z,18.47
2019-05-07T02:26:24.328Z,19.83
2019-05-07T02:28:53.620Z,19.70
2019-05-07T02:31:23.433Z,19.97
2019-05-07T02:33:54.061Z,19.67
2019-05-07T02:36:24.702Z,20.77
2019-05-07T02:38:55.619Z,20.07
2019-05-07T02:41:26.538Z,20.73
2019-05-07T02:43:59.930Z,21.60
2019-05-07T02:46:35.136Z,21.30
2019-05-07T02:49:16.173Z,20.80
2019-05-07T02:51:52.958Z,19.67
2019-05-07T02:54:25.107Z,19.20
2019-05-07T02:56:54.377Z,19.93
2019-05-07T02:59:23.787Z,20.47
2019-05-07T03:01:53.928Z,20.13
2019-05-07T03:04:25.205Z,19.73
2019-05-07T03:06:54.603Z,21.00
2019-05-07T03:09:24.088Z,20.77
2019-05-07T03:11:53.362Z,20.43
2019-05-07T03:14:23.399Z,21.17
2019-05-07T03:16:53.828Z,20.57
2019-05-07T03:19:24.179Z,21.33
2019-05-07T03:21:54.651Z,20.80
2019-05-07T03:24:34.251Z,20.57
2019-05-07T03:27:03.869Z,20.97
2019-05-07T03:29:33.672Z,20.37
2019-05-07T03:32:16.042Z,20.37
2019-05-07T03:34:57.934Z,20.90
2019-05-07T03:37:31.940Z,21.13
2019-05-07T03:40:07.013Z,21.80
2019-05-07T03:42:37.285Z,21.00
2019-05-07T03:45:17.605Z,21.30
2019-05-07T03:47:54.087Z,20.40
2019-05-07T03:50:23.355Z,20.63
2019-05-07T03:52:54.286Z,21.27
2019-05-07T03:55:24.090Z,20.60
2019-05-07T03:57:53.371Z,21.03
2019-05-07T04:00:23.922Z,22.90
2019-05-07T04:02:54.286Z,20.87
2019-05-07T04:05:23.576Z,20.07
2019-05-07T04:07:54.167Z,20.83
2019-05-07T04:10:23.746Z,21.30
2019-05-07T04:12:54.100Z,20.73
2019-05-07T04:15:23.584Z,21.50
2019-05-07T04:17:53.692Z,21.23
2019-05-07T04:20:23.980Z,20.77
2019-05-07T04:22:53.744Z,21.80
2019-05-07T04:25:24.873Z,21.00
2019-05-07T04:28:04.343Z,19.90
2019-05-07T04:30:34.550Z,20.40
2019-05-07T04:33:05.538Z,22.17
2019-05-07T04:35:48.552Z,20.50
2019-05-07T04:38:17.828Z,22.10
2019-05-07T04:40:47.118Z,21.63
2019-05-07T04:43:16.388Z,22.17
2019-05-07T04:45:45.690Z,21.27
2019-05-07T04:48:14.951Z,22.47
2019-05-07T04:50:47.692Z,21.90
2019-05-07T04:53:16.829Z,22.43
2019-05-07T04:55:46.112Z,23.67
2019-05-07T04:58:15.391Z,23.37
2019-05-07T05:00:44.654Z,23.37
2019-05-07T05:03:15.568Z,23.67
2019-05-07T05:05:44.846Z,22.73
2019-05-07T05:08:14.118Z,23.17
2019-05-07T05:10:43.591Z,23.00
2019-05-07T05:13:13.263Z,22.83
2019-05-07T05:15:43.266Z,22.73
2019-05-07T05:18:12.950Z,22.03
2019-05-07T05:20:46.879Z,22.63
2019-05-07T05:23:18.775Z,23.47
2019-05-07T05:25:48.042Z,22.80
2019-05-07T05:28:17.344Z,23.53
2019-05-07T05:30:48.351Z,22.60
2019-05-07T05:33:17.620Z,23.07
2019-05-07T05:35:46.890Z,24.17
2019-05-07T05:38:16.164Z,22.93
2019-05-07T05:40:45.451Z,22.83
2019-05-07T05:43:32.056Z,23.43
2019-05-07T05:46:03.336Z,22.73
2019-05-07T05:48:33.415Z,23.10
2019-05-07T05:51:07.387Z,21.87
2019-05-07T05:53:43.183Z,23.03
2019-05-07T05:56:18.820Z,23.73
2019-05-07T05:59:08.926Z,22.17
2019-05-07T06:01:39.828Z,23.87
2019-05-07T06:04:13.475Z,23.50
2019-05-07T06:06:44.387Z,22.07
2019-05-07T06:09:32.812Z,22.77
2019-05-07T06:12:12.811Z,23.27
2019-05-07T06:14:43.753Z,23.23
2019-05-07T06:17:32.103Z,25.57
2019-05-07T06:20:05.897Z,24.20
2019-05-07T06:22:37.849Z,24.17
2019-05-07T06:25:15.304Z,24.57
2019-05-07T06:27:44.713Z,23.80
2019-05-07T06:30:14.333Z,24.37
2019-05-07T06:32:43.604Z,23.67
2019-05-07T06:35:12.988Z,24.97
2019-05-07T06:37:43.039Z,24.33
2019-05-07T06:40:19.617Z,23.30
2019-05-07T06:42:56.056Z,23.50
2019-05-07T06:45:26.969Z,25.87
2019-05-07T06:47:56.241Z,26.87
2019-05-07T06:50:25.533Z,26.00
2019-05-07T06:52:54.817Z,25.93
2019-05-07T06:55:24.094Z,24.87
2019-05-07T06:57:53.369Z,22.63
2019-05-07T07:00:25.721Z,24.43
2019-05-07T07:03:05.935Z,21.00
2019-05-07T07:05:36.857Z,18.50
2019-05-07T07:08:12.437Z,17.90
2019-05-07T07:10:59.569Z,16.30
2019-05-07T07:13:29.185Z,16.73
2019-05-07T07:15:58.528Z,17.93
2019-05-07T07:18:27.807Z,15.57
2019-05-07T07:20:57.109Z,15.13
2019-05-07T07:23:26.380Z,11.97
2019-05-07T07:25:55.676Z,15.03
2019-05-07T07:28:24.954Z,15.80
2019-05-07T07:30:56.863Z,16.47
2019-05-07T07:33:27.803Z,16.43
2019-05-07T07:35:57.113Z,13.93
2019-05-07T07:38:32.802Z,15.67
2019-05-07T07:41:05.512Z,15.37
2019-05-07T07:43:34.861Z,15.10
2019-05-07T07:46:04.133Z,14.37
2019-05-07T07:48:33.422Z,15.00
2019-05-07T07:51:03.368Z,14.80
2019-05-07T07:53:35.383Z,14.90
2019-05-07T07:56:23.045Z,15.50
2019-05-07T07:58:54.189Z,14.67
2019-05-07T08:01:25.105Z,14.40
2019-05-07T08:03:54.393Z,14.57
2019-05-07T08:06:25.300Z,13.77
2019-05-07T08:08:54.588Z,13.70
2019-05-07T08:11:23.860Z,12.90
2019-05-07T08:13:53.226Z,13.20
2019-05-07T08:16:22.502Z,13.40
2019-05-07T08:18:52.216Z,12.77
2019-05-07T08:21:22.705Z,13.50
2019-05-07T08:23:52.872Z,14.13
2019-05-07T08:26:22.249Z,14.60
2019-05-07T08:28:52.719Z,14.33
2019-05-07T08:31:23.643Z,14.97
2019-05-07T08:34:02.085Z,16.67
2019-05-07T08:36:33.144Z,15.93
2019-05-07T08:39:03.192Z,16.30
2019-05-07T08:41:33.732Z,16.83
2019-05-07T08:44:15.578Z,16.97
2019-05-07T08:46:55.293Z,17.13
2019-05-07T08:49:35.885Z,16.80
2019-05-07T08:52:03.546Z,17.87
2019-05-07T08:54:33.552Z,19.17
2019-05-07T08:57:02.993Z,17.30
2019-05-07T08:59:33.610Z,18.50
2019-05-07T09:02:04.900Z,17.87
2019-05-07T09:04:34.184Z,16.83
2019-05-07T09:07:03.731Z,16.17
2019-05-07T09:09:33.006Z,16.30
2019-05-07T09:12:03.083Z,15.43
2019-05-07T09:14:32.536Z,17.00
2019-05-07T09:17:02.546Z,15.73
2019-05-07T09:19:46.899Z,16.20
2019-05-07T09:22:05.692Z,16.60
2019-05-07T09:24:34.968Z,16.80
2019-05-07T09:27:08.852Z,15.50
2019-05-07T09:29:48.820Z,15.63
2019-05-07T09:32:19.730Z,14.53
2019-05-07T09:34:52.040Z,13.97
2019-05-07T09:37:23.079Z,12.80
2019-05-07T09:39:52.348Z,14.23
2019-05-07T09:42:22.597Z,16.17
2019-05-07T09:44:52.886Z,14.87
2019-05-07T09:47:22.722Z,14.23
2019-05-07T09:50:03.981Z,15.30
2019-05-07T09:52:22.988Z,15.90
2019-05-07T09:54:52.487Z,15.17
2019-05-07T09:57:30.452Z,15.00
2019-05-07T09:59:53.294Z,14.67
2019-05-07T10:02:23.592Z,14.07
2019-05-07T10:04:52.941Z,15.03
2019-05-07T10:07:22.571Z,14.77
2019-05-07T10:09:52.550Z,14.10
2019-05-07T10:12:29.568Z,14.17
2019-05-07T10:14:58.926Z,14.63
2019-05-07T10:17:29.836Z,14.13
2019-05-07T10:19:59.380Z,15.43
2019-05-07T10:22:28.668Z,14.83
2019-05-07T10:24:58.113Z,15.43
2019-05-07T10:27:27.405Z,15.63
2019-05-07T10:29:57.233Z,15.27
2019-05-07T10:32:27.054Z,15.03
2019-05-07T10:34:56.344Z,15.73
2019-05-07T10:37:25.696Z,15.57
2019-05-07T10:39:54.968Z,15.33
2019-05-07T10:42:24.251Z,16.27
2019-05-07T10:44:57.951Z,15.93
2019-05-07T10:47:38.000Z,16.20
2019-05-07T10:50:33.128Z,17.30
2019-05-07T10:52:52.878Z,16.87
2019-05-07T10:55:22.416Z,16.53
2019-05-07T10:57:52.895Z,17.13
2019-05-07T11:00:25.916Z,15.80
2019-05-07T11:02:55.284Z,15.43
2019-05-07T11:05:24.654Z,17.50
2019-05-07T11:07:54.043Z,17.33
2019-05-07T11:10:23.369Z,17.63
2019-05-07T11:12:52.641Z,17.07
2019-05-07T11:15:22.191Z,17.40
2019-05-07T11:17:53.193Z,16.73
2019-05-07T11:20:24.016Z,17.20
2019-05-07T11:22:53.344Z,16.73
2019-05-07T11:25:22.686Z,17.37
2019-05-07T11:27:52.958Z,17.17
2019-05-07T11:30:22.917Z,15.53
2019-05-07T11:32:52.431Z,16.40
2019-05-07T11:35:23.021Z,13.27
2019-05-07T11:37:52.437Z,11.70
2019-05-07T11:40:22.860Z,11.90
2019-05-07T11:43:05.756Z,12.13
2019-05-07T11:45:42.663Z,11.63
2019-05-07T11:48:13.251Z,12.57
2019-05-07T11:50:44.296Z,13.93
2019-05-07T11:53:24.016Z,13.23
2019-05-07T11:55:53.304Z,16.17
2019-05-07T11:58:22.589Z,18.00
2019-05-07T12:00:59.530Z,18.07
2019-05-07T12:03:28.809Z,17.97
2019-05-07T12:05:58.099Z,17.17
2019-05-07T12:08:41.043Z,16.77
2019-05-07T12:10:58.441Z,16.43
2019-05-07T12:13:27.719Z,15.60
2019-05-07T12:15:56.995Z,15.00
2019-05-07T12:18:26.410Z,15.00
2019-05-07T12:20:55.688Z,13.97
2019-05-07T12:23:24.983Z,13.50
2019-05-07T12:25:54.279Z,13.07
2019-05-07T12:28:23.572Z,14.17
2019-05-07T12:30:54.480Z,13.27
2019-05-07T12:33:32.512Z,13.83
2019-05-07T12:36:02.108Z,13.33
2019-05-07T12:38:32.351Z,13.37
2019-05-07T12:41:03.452Z,12.97
2019-05-07T12:43:32.744Z,13.13
2019-05-07T12:46:02.851Z,12.87
2019-05-07T12:48:32.272Z,13.57
2019-05-07T12:51:01.553Z,13.40
2019-05-07T12:53:38.474Z,13.37
2019-05-07T12:56:07.751Z,12.70
2019-05-07T12:58:37.040Z,12.33
2019-05-07T13:01:07.958Z,13.53
2019-05-07T13:03:38.920Z,12.57
2019-05-07T13:06:08.220Z,13.23
2019-05-07T13:08:37.495Z,11.90
2019-05-07T13:11:06.768Z,11.70
2019-05-07T13:13:36.040Z,11.30
2019-05-07T13:16:05.326Z,12.13
2019-05-07T13:18:34.593Z,11.73
2019-05-07T13:21:03.968Z,12.13
2019-05-07T13:23:33.236Z,12.50
2019-05-07T13:26:02.746Z,10.73
2019-05-07T13:28:32.190Z,12.40
2019-05-07T13:31:02.324Z,11.57
2019-05-07T13:33:35.360Z,11.37
2019-05-07T13:36:04.992Z,11.83
2019-05-07T13:38:36.294Z,11.20
2019-05-07T13:41:07.319Z,11.70
2019-05-07T13:43:38.238Z,11.87
2019-05-07T13:46:12.848Z,11.57
2019-05-07T13:48:45.661Z,11.23
2019-05-07T13:51:15.148Z,11.40
2019-05-07T13:53:44.420Z,11.40
2019-05-07T13:56:13.717Z,11.87
2019-05-07T13:58:42.999Z,11.17
2019-05-07T14:01:30.021Z,9.93
2019-05-07T14:03:59.286Z,11.20
2019-05-07T14:06:42.637Z,11.20
2019-05-07T14:09:15.012Z,10.30
2019-05-07T14:11:44.356Z,9.63
2019-05-07T14:14:13.636Z,9.80
2019-05-07T14:16:44.998Z,9.87
2019-05-07T14:19:14.156Z,9.20
2019-05-07T14:21:43.440Z,8.53
2019-05-07T14:24:14.857Z,8.93
2019-05-07T14:26:43.744Z,9.63
2019-05-07T14:29:13.018Z,9.83
2019-05-07T14:31:42.705Z,10.50
2019-05-07T14:34:22.682Z,10.23
2019-05-07T14:36:53.614Z,9.20
2019-05-07T14:39:24.691Z,9.87
2019-05-07T14:41:55.870Z,9.07
2019-05-07T14:44:26.888Z,10.70
2019-05-07T14:46:56.191Z,9.93
2019-05-07T14:49:25.469Z,10.43
2019-05-07T14:51:54.758Z,9.93
2019-05-07T14:54:24.037Z,9.10
2019-05-07T14:56:53.314Z,8.67
2019-05-07T14:59:22.602Z,9.27
2019-05-07T15:01:52.250Z,9.33
2019-05-07T15:04:22.159Z,9.73
2019-05-07T15:06:51.962Z,8.80
2019-05-07T15:09:22.427Z,8.67
2019-05-07T15:11:52.689Z,8.77
2019-05-07T15:14:22.111Z,8.80
2019-05-07T15:16:53.046Z,8.90
2019-05-07T15:19:22.336Z,8.67
2019-05-07T15:21:53.509Z,7.90
2019-05-07T15:24:22.785Z,6.77
2019-05-07T15:26:53.766Z,7.97
2019-05-07T15:29:23.114Z,7.53
2019-05-07T15:31:56.933Z,8.00
2019-05-07T15:34:26.272Z,8.20
2019-05-07T15:36:55.553Z,7.90
2019-05-07T15:39:24.838Z,8.80
2019-05-07T15:41:54.133Z,9.30
2019-05-07T15:44:23.477Z,9.10
2019-05-07T15:46:54.427Z,10.33
2019-05-07T15:49:23.714Z,9.73
2019-05-07T15:51:54.626Z,8.83
2019-05-07T15:54:23.908Z,8.37
2019-05-07T15:56:54.838Z,8.23
2019-05-07T15:59:24.126Z,9.67
2019-05-07T16:01:55.036Z,8.90
2019-05-07T16:04:25.883Z,9.33
2019-05-07T16:06:57.280Z,10.07
2019-05-07T16:09:28.209Z,10.50
2019-05-07T16:11:58.072Z,10.30
2019-05-07T16:14:27.448Z,9.77
2019-05-07T16:16:58.348Z,9.00
2019-05-07T16:19:28.428Z,9.63
2019-05-07T16:21:59.335Z,9.07
2019-05-07T16:24:28.616Z,7.83
2019-05-07T16:26:57.897Z,9.13
2019-05-07T16:29:27.169Z,9.40
2019-05-07T16:31:56.471Z,9.20
2019-05-07T16:34:25.749Z,9.47
2019-05-07T16:36:55.032Z,9.50
2019-05-07T16:39:24.305Z,9.27
2019-05-07T16:41:53.603Z,9.30
2019-05-07T16:44:22.878Z,8.90
2019-05-07T16:46:53.481Z,7.97
2019-05-07T16:49:22.918Z,9.67
2019-05-07T16:51:52.540Z,9.03
2019-05-07T16:54:21.957Z,9.30
2019-05-07T16:57:12.145Z,8.33
2019-05-07T16:59:42.699Z,8.37
2019-05-07T17:02:13.817Z,8.87
2019-05-07T17:05:03.141Z,7.93
2019-05-07T17:07:33.625Z,8.37
2019-05-07T17:10:06.816Z,8.73
2019-05-07T17:12:37.971Z,7.53
2019-05-07T17:15:09.111Z,8.43
2019-05-07T17:17:38.464Z,7.40
2019-05-07T17:20:08.785Z,7.03
2019-05-07T17:22:38.068Z,7.03
2019-05-07T17:25:26.051Z,6.73
2019-05-07T17:27:55.405Z,7.20
2019-05-07T17:30:24.709Z,6.87
2019-05-07T17:32:53.999Z,6.20
2019-05-07T17:35:24.028Z,6.50
2019-05-07T17:38:06.029Z,6.27
2019-05-07T17:40:24.267Z,6.03
2019-05-07T17:42:53.557Z,5.63
2019-05-07T17:45:22.869Z,5.07
2019-05-07T17:47:52.396Z,5.80
2019-05-07T17:50:39.686Z,4.90
2019-05-07T17:53:08.983Z,5.40
2019-05-07T17:55:38.248Z,4.90
2019-05-07T17:58:07.536Z,5.07
2019-05-07T18:00:37.475Z,5.50
2019-05-07T18:03:08.409Z,4.90
2019-05-07T18:05:37.681Z,5.03
2019-05-07T18:08:07.036Z,4.63
2019-05-07T18:10:36.312Z,5.20
2019-05-07T18:13:08.077Z,4.43
2019-05-07T18:15:36.564Z,4.37
2019-05-07T18:18:07.489Z,4.97
2019-05-07T18:20:36.844Z,5.10
2019-05-07T18:23:08.747Z,5.07
2019-05-07T18:25:37.115Z,4.60
2019-05-07T18:28:06.398Z,4.67
2019-05-07T18:30:35.668Z,4.10
2019-05-07T18:33:15.301Z,5.00
2019-05-07T18:35:46.493Z,4.33
2019-05-07T18:38:15.784Z,3.83
2019-05-07T18:40:45.095Z,4.30
2019-05-07T18:43:14.430Z,4.33
2019-05-07T18:45:43.693Z,4.43
2019-05-07T18:48:12.973Z,4.73
2019-05-07T18:50:42.235Z,4.43
2019-05-07T18:53:12.205Z,5.20
2019-05-07T18:55:42.323Z,4.73
2019-05-07T18:58:13.349Z,4.93
2019-05-07T19:00:47.109Z,4.50
2019-05-07T19:03:16.540Z,5.57
2019-05-07T19:05:46.784Z,4.97
2019-05-07T19:08:16.079Z,4.87
2019-05-07T19:10:45.531Z,5.20
2019-05-07T19:13:14.846Z,4.67
2019-05-07T19:15:44.125Z,5.00
2019-05-07T19:18:13.412Z,4.90
2019-05-07T19:20:42.715Z,5.17
2019-05-07T19:23:11.994Z,5.00
2019-05-07T19:25:42.068Z,5.00
2019-05-07T19:28:14.709Z,5.03
2019-05-07T19:30:42.596Z,5.20
2019-05-07T19:33:12.296Z,5.37
2019-05-07T19:35:41.949Z,4.97
2019-05-07T19:38:11.452Z,4.50
2019-05-07T19:40:42.026Z,5.37
2019-05-07T19:43:11.405Z,4.97
2019-05-07T19:45:41.869Z,5.33
2019-05-07T19:48:12.497Z,5.73
2019-05-07T19:50:42.071Z,5.70
2019-05-07T19:53:12.483Z,5.17
2019-05-07T19:56:02.064Z,5.77
2019-05-07T19:58:32.659Z,4.67
2019-05-07T20:01:03.401Z,4.50
2019-05-07T20:03:32.670Z,5.00
2019-05-07T20:06:02.508Z,4.87
2019-05-07T20:08:32.491Z,6.10
2019-05-07T20:11:06.831Z,5.57
2019-05-07T20:13:36.161Z,5.30
2019-05-07T20:16:13.060Z,5.60
2019-05-07T20:18:42.838Z,5.60
2019-05-07T20:21:12.529Z,5.50
2019-05-07T20:23:43.128Z,5.43
2019-05-07T20:26:12.826Z,5.70
2019-05-07T20:28:42.264Z,5.87
2019-05-07T20:31:12.260Z,5.60
2019-05-07T20:33:42.867Z,5.90
2019-05-07T20:36:12.356Z,5.90
2019-05-07T20:38:42.694Z,6.23
2019-05-07T20:41:13.664Z,5.97
2019-05-07T20:43:43.199Z,6.17
2019-05-07T20:46:12.508Z,5.60
2019-05-07T20:48:42.425Z,6.20
2019-05-07T20:51:12.479Z,6.03
2019-05-07T20:53:56.594Z,5.97
2019-05-07T20:56:27.553Z,5.60
2019-05-07T20:58:56.828Z,5.53
2019-05-07T21:01:26.145Z,6.13
2019-05-07T21:03:55.423Z,5.53
2019-05-07T21:06:24.691Z,5.70
2019-05-07T21:08:53.984Z,5.80
2019-05-07T21:11:23.252Z,5.83
2019-05-07T21:13:52.560Z,6.07
2019-05-07T21:16:22.202Z,5.60
2019-05-07T21:18:52.860Z,6.23
2019-05-07T21:21:22.312Z,6.17
2019-05-07T21:23:52.706Z,5.87
2019-05-07T21:26:22.613Z,6.13
2019-05-07T21:28:53.019Z,6.70
2019-05-07T21:31:22.924Z,5.83
2019-05-07T21:33:52.511Z,6.33
2019-05-07T21:36:22.889Z,6.30
2019-05-07T21:38:52.268Z,7.00
2019-05-07T21:41:22.571Z,6.20
2019-05-07T21:43:52.789Z,5.73
2019-05-07T21:46:23.208Z,5.73
2019-05-07T21:48:53.727Z,5.33
2019-05-07T21:51:23.710Z,6.30
2019-05-07T21:53:54.616Z,6.10
2019-05-07T21:56:25.551Z,5.70
2019-05-07T21:59:08.816Z,5.73
2019-05-07T22:01:43.709Z,5.33
2019-05-07T22:04:13.188Z,5.07
2019-05-07T22:06:45.416Z,5.50
2019-05-07T22:09:14.152Z,5.10
2019-05-07T22:11:43.597Z,5.50
2019-05-07T22:14:13.126Z,5.20
2019-05-07T22:16:42.781Z,5.40
2019-05-07T22:19:12.285Z,5.30
2019-05-07T22:21:43.261Z,5.13
2019-05-07T22:24:15.107Z,5.00
2019-05-07T22:26:43.693Z,5.00
2019-05-07T22:29:13.062Z,6.87
2019-05-07T22:31:44.329Z,7.10
2019-05-07T22:34:24.385Z,5.90
2019-05-07T22:36:55.266Z,5.47
2019-05-07T22:39:32.722Z,5.27
2019-05-07T22:42:03.816Z,5.07
2019-05-07T22:44:33.088Z,4.97
2019-05-07T22:47:03.995Z,5.23
2019-05-07T22:49:33.429Z,5.23
2019-05-07T22:52:02.844Z,4.63
2019-05-07T22:54:32.124Z,4.93
2019-05-07T22:57:06.078Z,5.03
2019-05-07T22:59:35.347Z,4.53
2019-05-07T23:02:05.352Z,5.37
2019-05-07T23:04:34.626Z,4.67
2019-05-07T23:07:03.911Z,5.20
2019-05-07T23:09:33.182Z,4.70
2019-05-07T23:12:02.447Z,5.37
2019-05-07T23:14:33.025Z,4.83
2019-05-07T23:17:02.498Z,5.43
2019-05-07T23:19:32.685Z,5.10
2019-05-07T23:22:02.795Z,5.03
2019-05-07T23:24:32.249Z,5.20
2019-05-07T23:27:01.523Z,5.47
2019-05-07T23:29:32.895Z,5.10
2019-05-07T23:32:02.094Z,4.90
2019-05-07T23:34:32.573Z,5.30
2019-05-07T23:37:02.561Z,5.43
2019-05-07T23:39:33.565Z,5.20
2019-05-07T23:42:04.488Z,4.97
2019-05-07T23:44:33.771Z,4.77
2019-05-07T23:47:03.060Z,5.27
2019-05-07T23:49:32.398Z,5.50
2019-05-07T23:52:02.432Z,5.27
2019-05-07T23:54:32.077Z,5.60
2019-05-07T23:57:07.005Z,5.30
2019-05-07T23:59:33.429Z,5.63
